Time;durP1;ratioP1;P1;durP2;ratioP2;P2;SDS_P1;SDS_P2;PMS_P1;PMS_P2;Temp;Humidity;BMP_temperature;BMP_pressure;BME280_temperature;BME280_humidity;BME280_pressure;Samples;Min_cycle;Max_cycle;Signal;HPM_P1;HPM_P2
2024/01/20 00:00:57;;;;;;;0.47;0.10;;;-5.10;70.60;;;;;;20912325;28;20039;-43
2024/01/20 00:10:58;;;;;;;0.43;0.10;;;-5.30;71.50;;;;;;20912827;28;20666;-43
2024/01/20 00:21:00;;;;;;;0.13;0.08;;;-5.20;71.70;;;;;;20912136;28;20103;-43
2024/01/20 00:31:02;;;;;;;0.10;0.00;;;-5.40;73.70;;;;;;20913338;28;20708;-42
2024/01/20 00:41:05;;;;;;;0.20;0.10;;;-5.60;74.10;;;;;;20911079;28;20056;-42
2024/01/20 00:51:07;;;;;;;0.55;0.10;;;-5.70;76.60;;;;;;20912402;28;20468;-42
2024/01/20 01:01:08;;;;;;;0.30;0.10;;;-5.80;75.60;;;;;;20911187;28;20515;-44
2024/01/20 01:11:10;;;;;;;0.20;0.10;;;-5.90;77.20;;;;;;20910120;28;20040;-42
2024/01/20 01:21:12;;;;;;;0.03;0.03;;;-5.90;76.20;;;;;;20909472;28;20105;-44
2024/01/20 01:31:13;;;;;;;0.40;0.10;;;-5.80;77.50;;;;;;20906391;28;20496;-42
2024/01/20 01:41:19;;;;;;;0.13;0.00;;;-6.20;78.20;;;;;;20888513;28;20109;-41
2024/01/20 01:51:21;;;;;;;0.15;0.10;;;-6.30;77.00;;;;;;20867468;28;20949;-41
2024/01/20 02:01:23;;;;;;;0.10;0.08;;;-6.20;75.90;;;;;;20880562;28;21135;-42
2024/01/20 02:11:26;;;;;;;0.43;0.00;;;-6.20;74.80;;;;;;20863985;28;20168;-42
2024/01/20 02:21:28;;;;;;;0.10;0.00;;;-6.10;74.40;;;;;;20881233;28;20040;-42
2024/01/20 02:31:29;;;;;;;0.15;0.00;;;-5.80;74.10;;;;;;20878150;28;20129;-45
2024/01/20 02:41:31;;;;;;;0.28;0.10;;;-5.80;70.10;;;;;;20871361;28;20467;-41
2024/01/20 02:51:33;;;;;;;0.40;0.00;;;-5.60;69.40;;;;;;20876966;28;20097;-42
2024/01/20 03:01:35;;;;;;;0.20;0.00;;;-5.90;72.60;;;;;;20878922;28;20911;-42
2024/01/20 03:11:36;;;;;;;0.03;0.00;;;-6.10;71.60;;;;;;20873464;28;20090;-42
2024/01/20 03:21:38;;;;;;;0.15;0.10;;;-5.50;68.90;;;;;;20874254;28;20055;-42
2024/01/20 03:31:40;;;;;;;0.00;0.00;;;-5.20;67.10;;;;;;20876682;28;20118;-42
2024/01/20 03:41:42;;;;;;;0.10;0.00;;;-5.20;66.50;;;;;;20871436;28;20134;-42
2024/01/20 03:51:43;;;;;;;0.00;0.00;;;-5.50;69.80;;;;;;20873587;28;20033;-41
2024/01/20 04:01:45;;;;;;;0.10;0.00;;;-5.50;67.40;;;;;;20870875;28;20048;-43
2024/01/20 04:11:50;;;;;;;0.20;0.00;;;-5.40;65.90;;;;;;20871956;28;21174;-42
2024/01/20 04:21:51;;;;;;;0.00;0.00;;;-5.30;66.50;;;;;;20851687;28;20074;-41
2024/01/20 04:31:53;;;;;;;0.00;0.00;;;-5.30;66.20;;;;;;20872622;28;20082;-44
2024/01/20 04:41:58;;;;;;;0.13;0.00;;;-5.30;63.20;;;;;;20905109;28;20113;-43
2024/01/20 04:52:01;;;;;;;0.00;0.00;;;-4.90;61.10;;;;;;20909361;28;20040;-44
2024/01/20 05:02:03;;;;;;;0.10;0.08;;;-4.70;63.50;;;;;;20911424;28;20078;-41
2024/01/20 05:12:06;;;;;;;0.35;0.00;;;-4.70;62.40;;;;;;20925648;28;20126;-42
2024/01/20 05:22:08;;;;;;;0.40;0.00;;;-4.90;61.90;;;;;;20925257;28;20037;-42
2024/01/20 05:32:14;;;;;;;1.55;0.00;;;-5.00;65.80;;;;;;20923169;28;20036;-41
2024/01/20 05:42:16;;;;;;;0.22;0.00;;;-5.50;67.80;;;;;;20925099;28;21349;-41
2024/01/20 05:52:21;;;;;;;0.08;0.00;;;-5.80;68.30;;;;;;20922590;28;20121;-41
2024/01/20 06:02:22;;;;;;;0.10;0.00;;;-5.70;67.60;;;;;;20920602;28;20093;-42
2024/01/20 06:12:24;;;;;;;0.25;0.10;;;-5.40;65.50;;;;;;20918737;28;20048;-42
2024/01/20 06:22:26;;;;;;;0.10;0.00;;;-5.20;64.10;;;;;;20917978;28;20969;-41
2024/01/20 06:32:27;;;;;;;0.00;0.00;;;-5.00;63.20;;;;;;20894471;28;20036;-43
2024/01/20 06:42:29;;;;;;;0.08;0.00;;;-5.50;66.40;;;;;;20914466;28;20082;-41
2024/01/20 06:52:32;;;;;;;0.40;0.10;;;-5.60;66.70;;;;;;20912123;28;20125;-43
2024/01/20 07:02:35;;;;;;;0.10;0.00;;;-5.30;65.50;;;;;;20913886;28;20044;-41
2024/01/20 07:12:37;;;;;;;0.30;0.00;;;-5.10;63.50;;;;;;20911179;28;20039;-41
2024/01/20 07:22:38;;;;;;;0.10;0.00;;;-4.80;63.80;;;;;;20911625;28;20550;-41
2024/01/20 07:32:40;;;;;;;0.45;0.00;;;-4.50;61.90;;;;;;20910507;28;20040;-41
2024/01/20 07:42:43;;;;;;;0.00;0.00;;;-4.60;62.20;;;;;;20870923;28;20103;-41
2024/01/20 07:52:45;;;;;;;0.15;0.00;;;-4.50;62.10;;;;;;20839168;28;20621;-41
2024/01/20 08:02:47;;;;;;;0.88;0.00;;;-4.10;63.10;;;;;;20852074;28;20040;-41
2024/01/20 08:12:51;;;;;;;0.00;0.00;;;-3.30;59.50;;;;;;20867351;28;20062;-41
2024/01/20 08:22:53;;;;;;;0.00;0.00;;;-2.90;60.30;;;;;;20867185;28;20040;-41
2024/01/20 08:32:54;;;;;;;0.00;0.00;;;-2.70;58.00;;;;;;20865934;28;20037;-41
2024/01/20 08:42:57;;;;;;;0.00;0.00;;;-2.50;59.20;;;;;;20861571;28;20089;-41
2024/01/20 08:53:03;;;;;;;0.20;0.05;;;-2.40;56.50;;;;;;20884766;28;20032;-42
2024/01/20 09:03:04;;;;;;;0.05;0.00;;;-2.30;58.20;;;;;;20881216;28;20040;-40
2024/01/20 09:13:07;;;;;;;0.22;0.00;;;-2.10;59.00;;;;;;20880167;28;20483;-42
2024/01/20 09:23:11;;;;;;;1.08;0.20;;;-1.60;58.20;;;;;;20881094;28;20056;-42
2024/01/20 09:33:14;;;;;;;0.15;0.00;;;-1.40;56.20;;;;;;20851479;28;20086;-44
2024/01/20 09:43:16;;;;;;;1.42;0.00;;;-1.30;56.30;;;;;;20877880;28;21848;-43
2024/01/20 09:53:20;;;;;;;0.10;0.00;;;-0.70;54.80;;;;;;20874561;28;20055;-42
2024/01/20 10:03:26;;;;;;;0.00;0.00;;;-0.50;55.10;;;;;;20877621;28;20091;-41
2024/01/20 10:13:28;;;;;;;0.00;0.00;;;-0.20;54.20;;;;;;20877208;28;20556;-43
2024/01/20 10:23:33;;;;;;;1.55;0.00;;;0.10;53.50;;;;;;20873490;28;20102;-46
2024/01/20 10:33:35;;;;;;;0.47;0.00;;;;;;;;;;20874686;28;20044;-43
2024/01/20 10:43:40;;;;;;;0.40;0.05;;;0.40;55.00;;;;;;20911374;28;20040;-42
2024/01/20 10:53:42;;;;;;;1.65;0.10;;;0.70;53.10;;;;;;20892789;28;20625;-42
2024/01/20 11:03:45;;;;;;;0.10;0.00;;;0.90;55.10;;;;;;20910286;28;20036;-42
2024/01/20 11:13:48;;;;;;;0.05;0.00;;;1.10;53.00;;;;;;20912138;28;20032;-43
2024/01/20 11:23:59;;;;;;;0.00;0.00;;;1.50;52.80;;;;;;20890998;28;20124;-42
2024/01/20 11:34:04;;;;;;;0.00;0.00;;;1.70;50.50;;;;;;20908343;28;21625;-43
2024/01/20 11:44:06;;;;;;;0.28;0.10;;;1.40;53.40;;;;;;20869618;28;20112;-43
2024/01/20 11:54:08;;;;;;;0.52;0.00;;;1.00;56.10;;;;;;20868518;28;20045;-43
2024/01/20 12:04:10;;;;;;;0.10;0.00;;;1.40;53.80;;;;;;20866755;28;20036;-42
2024/01/20 12:14:12;;;;;;;0.05;0.00;;;1.50;51.60;;;;;;20867772;28;20036;-43
2024/01/20 12:24:14;;;;;;;0.00;0.00;;;1.30;51.60;;;;;;20865599;28;20036;-45
2024/01/20 12:34:16;;;;;;;0.00;0.00;;;1.00;49.90;;;;;;20873381;28;20111;-43
2024/01/20 12:44:19;;;;;;;0.00;0.00;;;1.50;49.40;;;;;;20907946;28;20050;-42
2024/01/20 12:54:21;;;;;;;0.20;0.00;;;1.50;48.00;;;;;;20905088;28;20040;-42
2024/01/20 13:04:22;;;;;;;1.20;0.00;;;1.80;50.60;;;;;;20897180;28;20044;-42
2024/01/20 13:14:27;;;;;;;0.10;0.00;;;1.70;48.20;;;;;;20902074;28;20036;-43
2024/01/20 13:24:29;;;;;;;0.05;0.00;;;1.50;47.80;;;;;;20908834;28;20117;-42
2024/01/20 13:34:33;;;;;;;0.08;0.00;;;1.30;48.60;;;;;;20909417;28;20048;-43
2024/01/20 13:44:35;;;;;;;0.52;0.00;;;1.20;48.40;;;;;;20877539;28;20045;-43
2024/01/20 13:54:36;;;;;;;0.15;0.10;;;1.00;47.90;;;;;;20873538;28;20040;-43
2024/01/20 14:04:39;;;;;;;0.10;0.00;;;0.80;48.70;;;;;;20872725;28;20443;-42
2024/01/20 14:14:47;;;;;;;0.10;0.00;;;0.80;50.10;;;;;;20850885;28;20677;-42
2024/01/20 14:24:50;;;;;;;0.00;0.00;;;0.80;49.60;;;;;;20871748;28;20037;-43
2024/01/20 14:34:55;;;;;;;0.05;0.00;;;0.90;48.90;;;;;;20877368;28;20036;-43
2024/01/20 14:45:00;;;;;;;0.00;0.00;;;0.90;47.80;;;;;;20911165;28;20032;-44
2024/01/20 14:55:02;;;;;;;0.00;0.00;;;0.80;47.80;;;;;;20910596;28;20081;-43
2024/01/20 15:05:04;;;;;;;1.58;0.00;;;0.70;46.60;;;;;;20890311;28;20571;-43
2024/01/20 15:15:06;;;;;;;0.00;0.00;;;0.70;47.30;;;;;;20906652;28;20036;-43
2024/01/20 15:25:11;;;;;;;0.57;0.05;;;0.50;47.40;;;;;;20906951;28;20143;-45
2024/01/20 15:35:12;;;;;;;0.00;0.00;;;-0.10;50.90;;;;;;20879673;28;20575;-44
2024/01/20 15:45:16;;;;;;;0.13;0.00;;;-0.70;52.10;;;;;;20868553;28;20040;-42
2024/01/20 15:55:18;;;;;;;0.00;0.00;;;-1.10;50.00;;;;;;20866775;28;20077;-44
2024/01/20 16:05:20;;;;;;;0.00;0.00;;;-1.10;50.60;;;;;;20865050;28;20440;-43
2024/01/20 16:15:22;;;;;;;0.43;0.00;;;-1.10;54.10;;;;;;20864677;28;20078;-45
2024/01/20 16:25:23;;;;;;;0.10;0.00;;;-1.50;54.40;;;;;;20863469;28;20105;-43
2024/01/20 16:35:25;;;;;;;0.00;0.00;;;-1.60;54.30;;;;;;20863333;28;20489;-42
2024/01/20 16:45:27;;;;;;;0.00;0.00;;;-1.60;52.70;;;;;;20865584;28;20036;-44
2024/01/20 16:55:28;;;;;;;0.00;0.00;;;-1.50;52.90;;;;;;20843480;28;21551;-43
2024/01/20 17:05:31;;;;;;;0.65;0.00;;;-1.50;52.30;;;;;;20873625;28;20040;-45
2024/01/20 17:15:33;;;;;;;0.10;0.00;;;-1.40;52.90;;;;;;20881929;28;20070;-43
2024/01/20 17:25:34;;;;;;;0.00;0.00;;;-1.60;54.00;;;;;;20878527;28;20044;-42
2024/01/20 17:35:37;;;;;;;0.13;0.00;;;-2.00;55.50;;;;;;20876167;28;20052;-44
2024/01/20 17:45:39;;;;;;;0.00;0.00;;;-2.00;56.00;;;;;;20878973;28;20101;-43
2024/01/20 17:55:40;;;;;;;0.35;0.10;;;-2.30;56.70;;;;;;20876993;28;20044;-42
2024/01/20 18:05:42;;;;;;;0.13;0.10;;;-2.70;58.10;;;;;;20875463;28;20032;-43
2024/01/20 18:15:44;;;;;;;2.50;0.03;;;-2.70;60.30;;;;;;20874231;28;20036;-46
2024/01/20 18:25:46;;;;;;;0.03;0.00;;;-2.70;58.90;;;;;;20877388;28;20085;-42
2024/01/20 18:35:48;;;;;;;0.20;0.00;;;-3.20;65.10;;;;;;20887980;28;20051;-43
2024/01/20 18:45:50;;;;;;;0.65;0.00;;;-3.50;66.70;;;;;;20913192;28;20036;-42
2024/01/20 18:55:52;;;;;;;0.28;0.10;;;-3.60;66.30;;;;;;20915321;28;20069;-41
2024/01/20 19:05:54;;;;;;;0.10;0.00;;;-3.70;69.40;;;;;;20913542;28;20052;-42
2024/01/20 19:15:56;;;;;;;0.00;0.00;;;-4.00;73.80;;;;;;20913466;28;20040;-46
2024/01/20 19:25:57;;;;;;;0.10;0.00;;;-4.40;72.50;;;;;;20890358;28;20121;-43
2024/01/20 19:35:59;;;;;;;0.50;0.20;;;-4.60;76.10;;;;;;20889299;28;20048;-42
2024/01/20 19:46:02;;;;;;;0.10;0.00;;;-4.60;74.50;;;;;;20909734;28;20048;-42
2024/01/20 19:56:05;;;;;;;0.55;0.03;;;-4.80;75.10;;;;;;20910313;28;20040;-41
2024/01/20 20:06:07;;;;;;;0.60;0.05;;;-5.00;75.80;;;;;;20909133;28;20040;-41
2024/01/20 20:16:09;;;;;;;0.20;0.00;;;-5.10;74.70;;;;;;20911070;28;20089;-41
2024/01/20 20:26:11;;;;;;;0.30;0.00;;;-5.00;74.80;;;;;;20906400;28;20032;-41
2024/01/20 20:36:15;;;;;;;0.00;0.00;;;-5.00;75.20;;;;;;20918649;28;20866;-42
2024/01/20 20:46:17;;;;;;;0.28;0.00;;;-5.30;78.30;;;;;;20926180;28;20381;-42
2024/01/20 20:56:22;;;;;;;0.20;0.10;;;-5.30;79.40;;;;;;20924132;28;20032;-42
2024/01/20 21:06:23;;;;;;;0.57;0.10;;;-5.30;78.00;;;;;;20903774;28;20044;-43
2024/01/20 21:16:25;;;;;;;0.28;0.10;;;-5.40;78.30;;;;;;20922970;28;20093;-41
2024/01/20 21:26:28;;;;;;;0.00;0.00;;;-5.30;79.30;;;;;;20904485;28;20039;-43
2024/01/20 21:36:29;;;;;;;0.32;0.10;;;-5.40;78.70;;;;;;20921810;28;20101;-42
2024/01/20 21:46:31;;;;;;;0.52;0.10;;;-5.30;76.50;;;;;;20920354;28;20106;-41
2024/01/20 21:56:36;;;;;;;1.13;0.20;;;-5.40;76.10;;;;;;20889138;28;20089;-41
2024/01/20 22:06:38;;;;;;;2.15;0.00;;;-5.10;77.40;;;;;;20918088;28;20036;-42
2024/01/20 22:16:40;;;;;;;0.52;0.03;;;-5.10;71.30;;;;;;20916343;28;20056;-44
2024/01/20 22:26:42;;;;;;;0.28;0.00;;;-4.90;75.10;;;;;;20916017;28;20093;-41
2024/01/20 22:36:44;;;;;;;0.10;0.08;;;-5.10;73.20;;;;;;20915691;28;20106;-42
2024/01/20 22:46:48;;;;;;;0.35;0.00;;;-5.10;77.30;;;;;;20914919;28;20059;-41
2024/01/20 22:56:51;;;;;;;0.05;0.00;;;-5.30;77.20;;;;;;20913016;28;20085;-41
2024/01/20 23:06:55;;;;;;;0.45;0.00;;;-5.50;77.90;;;;;;20912426;28;20953;-43
2024/01/20 23:16:57;;;;;;;0.13;0.10;;;-5.00;72.40;;;;;;20913633;28;20566;-42
2024/01/20 23:26:59;;;;;;;0.08;0.00;;;-5.20;78.40;;;;;;20911446;28;20109;-41
2024/01/20 23:37:00;;;;;;;0.10;0.00;;;-5.70;77.70;;;;;;20891633;28;20048;-44
2024/01/20 23:47:02;;;;;;;0.90;0.22;;;-5.70;78.30;;;;;;20910837;28;20040;-41
2024/01/20 23:57:04;;;;;;;0.00;0.00;;;-5.60;78.00;;;;;;20910182;28;21056;-41
